Latest Weather Observations for Busselton Airport

IDW60801

Issued at 9:02 am WST Sunday 30 August 2015 (issued every 30 minutes, with the page automatically refreshed every 10 minutes)

About weather observations | Map of weather stations | Latest weather observations for WA | Other Formats
Station Details ID: 009603 Name: BUSSELTON AERO Lat: -33.69 Lon: 115.40 Height: 16.3 m
Data from the previous 72 hours. | See also: Recent months at Busselton Airport
Date/Time
WST
Temp
°C
App
Temp
°C
Dew
Point
Rel
Hum
%
Delta-T
°C
Wind Press
QNH
hPa
Press
MSL
hPa
Rain
since 9 am
mm
Dir
 
Spd
km/h
Gust
km/h
Spd
kts
Gust
kts
30/09:00am 13.0 9.6 7.7 70 2.6 SSW 15 20 8 11 1019.2 1019.2 14.0
30/08:30am 12.4 9.6 7.1 70 2.5 SW 11 17 6 9 1018.9 1018.9 13.8
30/08:00am 10.8 8.6 7.7 81 1.5 SW 9 13 5 7 1018.4 1018.4 13.8
30/07:30am 10.3 7.9 8.6 89 0.8 WSW 11 17 6 9 1018.0 1018.0 13.8
30/07:00am 8.2 7.3 7.6 96 0.3 S 2 9 1 5 1017.6 1017.6 13.6
30/06:30am 7.8 7.0 6.7 93 0.5 CALM 0 0 0 0 1016.7 1016.7 13.6
30/06:00am 7.8 6.9 5.9 88 0.9 CALM 0 0 0 0 1016.1 1016.1 13.6
30/05:30am 8.7 7.9 6.3 85 1.1 CALM 0 0 0 0 1015.8 1015.8 13.6
30/05:00am 11.3 9.0 7.6 78 1.8 WSW 9 13 5 7 1015.5 1015.5 13.6
30/04:30am 11.7 9.6 8.2 79 1.7 W 9 11 5 6 1014.9 1014.9 13.6
30/04:00am 12.1 10.1 8.6 79 1.7 WSW 9 13 5 7 1014.9 1014.9 13.6
30/03:30am 12.1 10.7 9.7 85 1.2 W 7 9 4 5 1014.8 1014.8 13.6
30/03:00am 12.3 10.6 9.9 85 1.2 WSW 9 13 5 7 1014.5 1014.5 13.6
30/02:30am 12.2 10.5 9.9 86 1.2 WSW 9 11 5 6 1014.4 1014.4 13.6
30/02:00am 12.5 10.8 10.0 85 1.3 W 9 13 5 7 1014.4 1014.4 13.6
30/01:30am 12.6 9.4 9.8 83 1.4 WSW 17 28 9 15 1014.1 1014.1 13.6
30/01:21am 12.9 8.6 9.5 80 1.7 W 22 46 12 25 1014.1 1014.1 13.6
30/01:17am 13.2 9.8 9.3 77 2.0 W 17 44 9 24 1014.1 1014.1 13.6
30/01:00am 12.9 11.1 9.4 79 1.8 WNW 9 13 5 7 1013.4 1013.4 13.6
30/12:30am 13.5 11.5 10.3 81 1.7 W 11 15 6 8 1013.2 1013.2 13.6
30/12:00am 13.5 12.2 11.2 86 1.2 WNW 9 11 5 6 1012.9 1012.9 13.6
 
Date/Time
WST
Temp
°C
App
Temp
°C
Dew
Point
Rel
Hum
%
Delta-T
°C
Wind Press
QNH
hPa
Press
MSL
hPa
Rain
since 9 am
mm
Dir
 
Spd
km/h
Gust
km/h
Spd
kts
Gust
kts
29/11:30pm 13.6 12.3 11.3 86 1.2 WNW 9 9 5 5 1012.7 1012.7 13.6
29/11:00pm 14.0 11.9 11.0 82 1.6 W 13 19 7 10 1012.7 1012.7 13.6
29/10:30pm 14.2 11.2 10.8 80 1.8 WNW 17 24 9 13 1012.6 1012.6 13.4
29/10:00pm 14.8 12.8 11.6 81 1.7 NW 13 19 7 10 1012.5 1012.5 13.2
29/09:30pm 14.3 12.6 12.5 89 1.0 NW 13 19 7 10 1012.5 1012.5 13.2
29/09:00pm 13.6 12.6 12.3 92 0.7 NNW 9 11 5 6 1012.4 1012.4 13.2
29/08:30pm 13.3 12.4 11.5 89 1.0 N 7 9 4 5 1012.3 1012.3 13.2
29/08:00pm 14.1 13.3 11.8 86 1.2 NW 7 9 4 5 1012.0 1012.0 13.2
29/07:30pm 14.3 13.5 11.6 84 1.4 NW 7 9 4 5 1011.9 1011.9 13.2
29/07:00pm 14.8 13.6 11.6 81 1.7 W 9 13 5 7 1011.7 1011.7 13.2
29/06:30pm 15.6 13.1 11.2 75 2.4 W 15 22 8 12 1011.5 1011.5 13.2
29/06:00pm 16.1 14.2 11.7 75 2.4 W 13 20 7 11 1010.9 1010.9 13.2
29/05:30pm 16.3 14.7 12.7 79 2.0 WNW 13 17 7 9 1010.6 1010.6 13.2
29/05:00pm 16.5 15.2 12.5 77 2.2 WNW 11 17 6 9 1010.4 1010.4 13.2
29/04:30pm 17.2 15.1 12.3 73 2.7 W 15 19 8 10 1010.2 1010.2 13.2
29/04:00pm 18.0 14.7 11.6 66 3.5 WNW 20 28 11 15 1010.0 1010.0 13.2
29/03:30pm 18.3 15.4 12.3 68 3.3 WNW 19 28 10 15 1010.0 1010.0 13.2
29/03:00pm 17.7 14.5 11.9 69 3.2 W 20 32 11 17 1009.7 1009.7 13.2
29/02:30pm 18.3 16.0 15.7 85 1.5 W 22 32 12 17 1009.2 1009.2 13.2
29/02:00pm 18.6 17.9 18.6 100 0.0 W 20 28 11 15 1008.7 1008.7 13.2
29/01:30pm 17.2 14.4 17.2 100 0.0 W 28 37 15 20 1008.4 1008.4 13.2
29/01:00pm 17.4 13.3 17.4 100 0.0 NW 35 54 19 29 1007.6 1007.6 13.2
29/12:45pm 16.6 9.7 16.6 100 0.0 NNW 48 69 26 37 1006.8 1006.8 13.2
29/12:40pm 16.8 10.4 16.8 100 0.0 N 46 69 25 37 1006.6 1006.6 13.0
29/12:32pm 16.3 12.3 16.3 100 0.0 NNE 32 57 17 31 1006.5 1006.5 12.8
29/12:30pm 16.1 12.8 16.1 100 0.0 NNE 28 43 15 23 1006.7 1006.7 12.8
29/12:13pm 15.9 11.2 15.9 100 0.0 N 35 54 19 29 1007.9 1007.9 10.0
29/12:00pm 15.9 11.2 15.9 100 0.0 NNE 35 46 19 25 1008.0 1008.0 7.2
29/11:30am 16.3 11.4 16.3 100 0.0 NNE 37 57 20 31 1009.1 1009.1 4.4
29/11:23am 16.1 11.5 16.1 100 0.0 NNE 35 57 19 31 1009.1 1009.1 4.2
29/11:00am 16.3 12.1 16.3 100 0.0 NNE 33 44 18 24 1009.3 1009.3 1.6
29/10:30am 16.4 12.9 16.4 100 0.0 NNE 30 37 16 20 1009.7 1009.7 0.2
29/10:00am 16.9 15.1 16.9 100 0.0 N 22 30 12 16 1010.2 1010.2 0.0
29/09:30am 16.5 14.1 16.5 100 0.0 NNE 24 32 13 17 1010.4 1010.4 0.0
29/09:00am 16.7 14.3 16.5 99 0.1 NNE 24 33 13 18 1010.7 1010.7 0.0
29/08:30am 16.5 14.1 16.3 99 0.1 NNE 24 30 13 16 1010.8 1010.8 0.0
29/08:00am 16.2 14.0 15.9 98 0.2 NNE 22 28 12 15 1010.9 1010.9 0.0
29/07:30am 15.4 13.9 15.4 100 0.0 NNE 17 22 9 12 1010.8 1010.8 0.0
29/07:00am 14.1 12.9 13.9 99 0.1 NE 13 17 7 9 1010.7 1010.7 0.0
29/06:30am 13.4 11.8 12.9 97 0.3 ENE 13 17 7 9 1011.0 1011.0 0.0
29/06:00am 12.5 11.0 10.6 88 1.0 ENE 9 13 5 7 1010.9 1010.9 0.0
29/05:30am 15.2 13.6 12.7 85 1.4 NNW 13 17 7 9 1011.0 1011.0 0.0
29/05:00am 15.8 13.4 12.7 82 1.7 NNW 17 20 9 11 1010.9 1010.9 0.0
29/04:30am 15.6 14.0 14.0 90 0.9 NNW 15 17 8 9 1011.0 1011.0 0.0
29/04:00am 13.7 12.7 13.5 99 0.1 NNW 11 15 6 8 1011.1 1011.1 0.0
29/03:30am 11.5 10.5 11.0 97 0.3 E 7 9 4 5 1011.3 1011.3 0.0
29/03:00am 11.6 10.2 11.0 96 0.3 E 9 11 5 6 1011.7 1011.7 0.0
29/02:30am 11.9 10.6 11.1 95 0.4 SSW 9 13 5 7 1012.1 1012.1 0.0
29/02:00am 11.8 9.7 11.0 95 0.4 ENE 13 15 7 8 1012.2 1012.2 0.0
29/01:30am 11.6 10.2 10.8 95 0.4 ENE 9 11 5 6 1012.7 1012.7 0.0
29/01:00am 11.5 9.7 10.9 96 0.3 ENE 11 13 6 7 1012.9 1012.9 0.0
29/12:30am 11.6 9.5 11.0 96 0.3 ENE 13 17 7 9 1013.2 1013.2 0.0
29/12:00am 11.2 9.7 10.7 97 0.3 ENE 9 13 5 7 1013.5 1013.5 0.0
 
Date/Time
WST
Temp
°C
App
Temp
°C
Dew
Point
Rel
Hum
%
Delta-T
°C
Wind Press
QNH
hPa
Press
MSL
hPa
Rain
since 9 am
mm
Dir
 
Spd
km/h
Gust
km/h
Spd
kts
Gust
kts
28/11:30pm 11.0 9.1 10.5 97 0.3 ENE 11 13 6 7 1013.7 1013.7 0.0
28/11:00pm 9.7 8.4 9.1 96 0.3 ENE 6 9 3 5 1014.1 1014.1 0.0
28/10:30pm 9.9 8.0 9.1 95 0.4 ESE 9 9 5 5 1014.6 1014.6 0.0
28/10:00pm 10.0 8.5 9.1 94 0.4 E 7 9 4 5 1014.9 1014.9 0.0
28/09:30pm 10.4 9.5 9.2 92 0.6 ENE 4 7 2 4 1015.1 1015.1 0.0
28/09:00pm 11.0 9.8 9.4 90 0.8 E 6 7 3 4 1015.1 1015.1 0.0
28/08:30pm 11.1 9.8 9.2 88 0.9 ENE 6 7 3 4 1015.0 1015.0 0.0
28/08:00pm 12.1 10.9 9.7 85 1.2 ENE 6 6 3 3 1015.0 1015.0 0.0
28/07:30pm 13.5 12.4 10.1 80 1.8 N 6 7 3 4 1014.8 1014.8 0.0
28/07:00pm 14.3 14.6 10.9 80 1.8 CALM 0 6 0 3 1014.8 1014.8 0.0
28/06:30pm 14.3 13.2 10.5 78 2.0 NNW 7 9 4 5 1014.6 1014.6 0.0
28/06:00pm 15.3 13.6 9.9 70 2.8 NNW 9 11 5 6 1014.4 1014.4 0.0
28/05:30pm 16.0 13.7 10.3 69 3.0 NW 13 17 7 9 1014.2 1014.2 0.0
28/05:00pm 16.6 13.9 10.2 66 3.4 NW 15 17 8 9 1014.0 1014.0 0.0
28/04:30pm 17.1 14.1 10.5 65 3.5 NW 17 22 9 12 1014.1 1014.1 0.0
28/04:00pm 17.4 13.8 9.8 61 4.0 NW 19 22 10 12 1013.8 1013.8 0.0
28/03:30pm 18.5 15.3 11.1 62 4.0 NW 19 24 10 13 1013.8 1013.8 0.0
28/03:00pm 18.8 15.7 10.4 58 4.5 WNW 17 24 9 13 1013.5 1013.5 0.0
28/02:30pm 19.0 15.0 9.2 53 5.2 WNW 20 28 11 15 1013.5 1013.5 0.0
28/02:00pm 18.8 15.1 10.1 57 4.6 WNW 20 33 11 18 1013.6 1013.6 0.0
28/01:30pm 19.3 15.6 11.6 61 4.2 NW 22 30 12 16 1013.6 1013.6 0.0
28/01:00pm 19.2 15.9 11.7 62 4.1 NW 20 26 11 14 1013.9 1013.9 0.0
28/12:30pm 19.0 15.8 11.8 63 4.0 NW 20 28 11 15 1014.2 1014.2 0.0
28/12:00pm 19.5 15.9 12.0 62 4.2 WNW 22 30 12 16 1014.4 1014.4 0.0
28/11:30am 18.8 14.7 11.6 63 4.0 WNW 24 35 13 19 1014.5 1014.5 0.0
28/11:00am 19.0 15.8 11.8 63 4.0 WNW 20 30 11 16 1014.5 1014.5 0.0
28/10:30am 18.7 15.9 12.7 68 3.4 WNW 19 26 10 14 1014.5 1014.5 0.0
28/10:00am 17.4 15.3 12.3 72 2.8 NW 15 20 8 11 1014.5 1014.5 0.0
28/09:30am 17.2 17.3 15.5 90 1.0 N 9 13 5 7 1014.7 1014.7 0.0
28/09:00am 15.4 16.0 15.4 100 0.0 NE 6 7 3 4 1014.6 1014.6 0.8
28/08:30am 13.8 13.3 13.8 100 0.0 E 9 11 5 6 1014.5 1014.5 0.8
28/08:00am 13.3 13.0 13.3 100 0.0 ESE 7 9 4 5 1014.1 1014.1 0.8
28/07:30am 12.9 11.7 12.7 99 0.1 ESE 11 11 6 6 1013.9 1013.9 0.8
28/07:00am 12.3 11.6 12.1 99 0.1 ENE 7 11 4 6 1013.5 1013.5 0.8
28/06:30am 12.2 11.5 12.0 99 0.1 E 7 9 4 5 1013.2 1013.2 0.8
28/06:00am 12.1 11.0 11.8 98 0.2 ENE 9 11 5 6 1013.0 1013.0 0.8
28/05:30am 12.1 10.8 11.3 95 0.4 ENE 9 13 5 7 1012.8 1012.8 0.8
28/05:00am 11.7 9.4 10.6 93 0.6 ENE 13 15 7 8 1012.6 1012.6 0.0
28/04:30am 11.5 10.0 10.4 93 0.6 ENE 9 13 5 7 1012.6 1012.6 0.0
28/04:00am 11.1 9.0 9.9 92 0.6 E 11 13 6 7 1012.8 1012.8 0.0
28/03:30am 10.2 7.5 8.8 91 0.7 E 13 13 7 7 1012.7 1012.7 0.0
28/03:00am 8.8 6.0 7.1 89 0.8 E 11 13 6 7 1012.9 1012.9 0.0
28/02:30am 8.7 6.6 6.7 87 0.9 E 7 9 4 5 1013.0 1013.0 0.0
28/02:00am 9.3 8.6 7.1 86 1.0 CALM 0 9 0 5 1012.9 1012.9 0.0
28/01:30am 9.9 7.2 7.5 85 1.1 NNE 11 15 6 8 1012.7 1012.7 0.0
28/01:00am 13.5 11.4 11.2 86 1.2 NNE 13 17 7 9 1012.8 1012.8 0.0
28/12:30am 11.4 8.4 7.7 78 1.8 NNE 13 17 7 9 1012.9 1012.9 0.0
28/12:00am 11.3 7.8 7.4 77 1.9 NE 15 17 8 9 1012.8 1012.8 0.0
 
Date/Time
WST
Temp
°C
App
Temp
°C
Dew
Point
Rel
Hum
%
Delta-T
°C
Wind Press
QNH
hPa
Press
MSL
hPa
Rain
since 9 am
mm
Dir
 
Spd
km/h
Gust
km/h
Spd
kts
Gust
kts
27/11:30pm 11.9 8.7 7.0 72 2.3 ENE 13 15 7 8 1012.9 1012.9 0.0
27/11:00pm 11.8 8.6 6.7 71 2.4 ENE 13 15 7 8 1013.0 1013.0 0.0
27/10:30pm 12.8 9.3 7.0 68 2.8 E 15 17 8 9 1013.1 1013.1 0.0
27/10:00pm 12.2 8.6 6.9 70 2.5 E 15 17 8 9 1013.4 1013.4 0.0
27/09:30pm 12.4 9.5 6.7 68 2.7 E 11 13 6 7 1013.7 1013.7 0.0
27/09:00pm 12.9 9.7 6.7 66 3.0 E 13 15 7 8 1013.6 1013.6 0.0
27/08:30pm 12.8 9.3 7.3 69 2.7 E 15 17 8 9 1013.7 1013.7 0.0
27/08:00pm 12.2 9.1 7.3 72 2.4 ESE 13 13 7 7 1013.7 1013.7 0.0
27/07:30pm 12.7 11.2 9.3 80 1.7 SE 7 9 4 5 1013.7 1013.7 0.0
27/07:00pm 14.2 12.9 9.8 75 2.3 SE 7 9 4 5 1013.7 1013.7 0.0
27/06:30pm 14.8 13.3 9.2 69 2.9 SE 7 9 4 5 1013.7 1013.7 0.0
27/06:00pm 18.2 17.0 10.3 60 4.2 SSW 7 9 4 5 1013.6 1013.6 0.0
27/05:30pm 20.1 19.2 9.1 49 5.8 ESE 4 6 2 3 1013.6 1013.6 0.0
27/05:00pm 20.5 18.3 9.4 49 5.9 SE 11 13 6 7 1013.5 1013.5 0.0
27/04:30pm 21.3 19.4 7.5 41 7.1 SE 7 9 4 5 1013.8 1013.8 0.0
27/04:00pm 21.1 18.9 9.4 47 6.2 ESE 11 15 6 8 1014.2 1014.2 0.0
27/03:30pm 21.7 18.9 6.8 38 7.6 E 11 15 6 8 1014.5 1014.5 0.0
27/03:00pm 21.5 18.2 6.6 38 7.6 NE 13 17 7 9 1014.6 1014.6 0.0
27/02:30pm 22.3 18.5 3.9 30 8.9 NNE 13 20 7 11 1014.8 1014.8 0.0
27/02:00pm 21.8 17.9 5.3 34 8.2 N 15 20 8 11 1015.1 1015.1 0.0
27/01:30pm 21.3 17.2 4.4 33 8.2 N 15 20 8 11 1015.6 1015.6 0.0
27/01:00pm 21.4 17.2 3.6 31 8.5 N 15 20 8 11 1015.9 1015.9 0.0
27/12:30pm 21.0 18.1 6.5 39 7.3 NNE 11 19 6 10 1016.4 1016.4 0.0
27/12:00pm 20.4 17.9 8.1 45 6.4 ENE 11 17 6 9 1017.0 1017.0 0.0
27/11:30am 19.7 16.8 8.1 47 6.0 ENE 13 19 7 10 1017.5 1017.5 0.0
27/11:00am 18.9 15.2 6.4 44 6.2 NE 15 22 8 12 1018.0 1018.0 0.0
27/10:30am 18.1 14.4 7.8 51 5.2 ENE 17 20 9 11 1018.2 1018.2 0.0
27/10:00am 17.3 13.6 7.9 54 4.8 ENE 17 22 9 12 1018.5 1018.5 0.0
27/09:30am 15.8 12.8 7.6 58 4.1 E 13 19 7 10 1018.8 1018.8 0.0

Other Formats:

Comma delimited format used in spreadsheet applications
http://www.bom.gov.au/fwo/IDW60801/IDW60801.95611.axf

JavaScript Object Notation format (JSON) in row-major order
http://www.bom.gov.au/fwo/IDW60801/IDW60801.95611.json